createdAt,value
2023-02-15T00:01:08.439Z,7.40
2023-02-15T00:03:55.554Z,7.10
2023-02-15T00:06:42.050Z,7.30
2023-02-15T00:09:28.043Z,7.10
2023-02-15T00:12:14.110Z,7.00
2023-02-15T00:15:01.443Z,7.20
2023-02-15T00:17:47.418Z,7.40
2023-02-15T00:20:33.496Z,7.80
2023-02-15T00:23:19.814Z,7.80
2023-02-15T00:26:12.153Z,7.60
2023-02-15T00:29:00.825Z,7.60
2023-02-15T00:31:46.838Z,7.80
2023-02-15T00:34:33.158Z,7.50
2023-02-15T00:37:19.184Z,7.30
2023-02-15T00:40:07.537Z,7.10
2023-02-15T00:42:53.709Z,7.20
2023-02-15T00:45:39.870Z,7.30
2023-02-15T00:48:25.947Z,7.50
2023-02-15T00:51:11.808Z,7.50
2023-02-15T00:53:57.842Z,7.50
2023-02-15T00:56:43.597Z,7.50
2023-02-15T00:59:29.863Z,7.20
2023-02-15T01:02:15.539Z,6.80
2023-02-15T01:05:01.391Z,6.90
2023-02-15T01:07:47.099Z,7.20
2023-02-15T01:10:34.617Z,7.20
2023-02-15T01:13:22.872Z,7.40
2023-02-15T01:16:10.337Z,7.50
2023-02-15T01:18:57.162Z,7.60
2023-02-15T01:21:43.175Z,7.70
2023-02-15T01:24:29.562Z,7.70
2023-02-15T01:27:15.301Z,7.60
2023-02-15T01:30:03.202Z,7.60
2023-02-15T01:32:49.380Z,7.60
2023-02-15T01:35:34.976Z,7.60
2023-02-15T01:38:20.777Z,7.50
2023-02-15T01:41:24.120Z,7.40
2023-02-15T01:44:50.544Z,7.40
2023-02-15T01:47:45.672Z,7.40
2023-02-15T01:50:47.292Z,7.30
2023-02-15T01:53:48.259Z,7.30
2023-02-15T01:56:36.943Z,7.40
2023-02-15T01:59:25.174Z,7.40
2023-02-15T02:02:14.834Z,7.30
2023-02-15T02:05:07.540Z,7.40
2023-02-15T02:07:58.170Z,7.30
2023-02-15T02:10:44.061Z,7.30
2023-02-15T02:13:29.944Z,7.30
2023-02-15T02:16:33.745Z,7.50
2023-02-15T02:19:25.704Z,7.40
2023-02-15T02:22:25.446Z,7.40
2023-02-15T02:25:28.857Z,7.30
2023-02-15T02:28:45.548Z,7.30
2023-02-15T02:31:52.344Z,7.30
2023-02-15T02:35:14.065Z,7.30
2023-02-15T02:38:11.846Z,7.30
2023-02-15T02:41:25.628Z,7.30
2023-02-15T02:44:28.031Z,7.30
2023-02-15T02:47:19.921Z,7.30
2023-02-15T02:50:15.366Z,7.50
2023-02-15T02:53:01.816Z,7.50
2023-02-15T02:55:59.846Z,7.70
2023-02-15T02:58:52.333Z,7.80
2023-02-15T03:02:14.046Z,7.90
2023-02-15T03:05:07.309Z,7.70
2023-02-15T03:07:57.968Z,7.70
2023-02-15T03:10:45.424Z,6.60
2023-02-15T03:13:33.707Z,7.70
2023-02-15T03:16:28.272Z,7.70
2023-02-15T03:19:30.410Z,7.60
2023-02-15T03:22:32.858Z,7.50
2023-02-15T03:25:34.360Z,7.30
2023-02-15T03:28:33.283Z,7.30
2023-02-15T03:31:22.190Z,7.30
2023-02-15T03:34:12.681Z,7.30
2023-02-15T03:37:08.327Z,7.20
2023-02-15T03:40:21.225Z,7.20
2023-02-15T03:43:34.641Z,7.10
2023-02-15T03:46:41.103Z,7.10
2023-02-15T03:49:53.182Z,6.90
2023-02-15T03:52:42.028Z,6.70
2023-02-15T03:55:28.881Z,6.70
2023-02-15T03:58:33.165Z,6.60
2023-02-15T04:01:47.788Z,6.60
2023-02-15T04:04:40.294Z,6.60
2023-02-15T04:07:26.175Z,6.80
2023-02-15T04:10:30.695Z,6.80
2023-02-15T04:13:16.720Z,6.40
2023-02-15T04:16:06.276Z,6.90
2023-02-15T04:19:12.079Z,6.70
2023-02-15T04:22:16.606Z,6.70
2023-02-15T04:25:15.314Z,6.70
2023-02-15T04:28:01.286Z,6.60
2023-02-15T04:30:48.158Z,6.50
2023-02-15T04:33:33.983Z,6.40
2023-02-15T04:36:19.931Z,6.50
2023-02-15T04:39:06.657Z,6.40
2023-02-15T04:41:54.005Z,6.30
2023-02-15T04:44:40.074Z,6.30
2023-02-15T04:47:26.115Z,6.50
2023-02-15T04:50:12.487Z,6.40
2023-02-15T04:52:58.348Z,6.50
2023-02-15T04:55:44.234Z,6.40
2023-02-15T04:58:30.401Z,6.40
2023-02-15T05:01:16.541Z,6.40
2023-02-15T05:04:02.896Z,6.00
2023-02-15T05:06:49.225Z,6.30
2023-02-15T05:09:34.827Z,6.40
2023-02-15T05:12:20.960Z,6.60
2023-02-15T05:15:06.857Z,6.60
2023-02-15T05:17:52.657Z,5.90
2023-02-15T05:20:38.594Z,5.60
2023-02-15T05:23:24.493Z,5.80
2023-02-15T05:26:36.089Z,5.70
2023-02-15T05:29:22.100Z,6.10
2023-02-15T05:32:08.211Z,6.30
2023-02-15T05:34:54.079Z,6.70
2023-02-15T05:37:39.708Z,5.90
2023-02-15T05:40:25.753Z,6.00
2023-02-15T05:43:12.992Z,6.10
2023-02-15T05:46:00.815Z,6.10
2023-02-15T05:48:47.040Z,5.80
2023-02-15T05:51:32.965Z,4.70
2023-02-15T05:54:19.041Z,5.40
2023-02-15T05:58:09.964Z,5.60
2023-02-15T06:00:55.992Z,5.90
2023-02-15T06:03:42.278Z,5.50
2023-02-15T06:06:28.522Z,5.80
2023-02-15T06:09:14.439Z,6.00
2023-02-15T06:12:00.127Z,6.10
2023-02-15T06:14:45.870Z,6.10
2023-02-15T06:21:13.027Z,6.20
2023-02-15T06:23:58.890Z,6.30
2023-02-15T06:26:44.852Z,6.30
2023-02-15T06:29:30.583Z,6.30
2023-02-15T06:32:16.715Z,6.20
2023-02-15T06:35:02.403Z,6.10
2023-02-15T06:37:49.183Z,6.10
2023-02-15T06:40:34.969Z,6.20
2023-02-15T06:43:20.937Z,6.20
2023-02-15T06:46:07.081Z,6.20
2023-02-15T06:48:53.216Z,6.30
2023-02-15T06:51:38.919Z,6.40
2023-02-15T06:54:25.008Z,7.80
2023-02-15T06:57:10.697Z,6.00
2023-02-15T06:59:56.219Z,6.60
2023-02-15T07:02:42.327Z,6.80
2023-02-15T07:05:32.602Z,6.80
2023-02-15T07:08:21.133Z,7.00
2023-02-15T07:11:25.713Z,7.00
2023-02-15T07:14:12.036Z,6.80
2023-02-15T07:16:57.675Z,6.70
2023-02-15T07:19:43.216Z,7.20
2023-02-15T07:22:29.486Z,6.70
2023-02-15T07:25:15.616Z,6.80
2023-02-15T07:28:05.766Z,7.10
2023-02-15T07:30:51.727Z,7.30
2023-02-15T07:33:37.390Z,7.40
2023-02-15T07:36:23.007Z,7.80
2023-02-15T07:39:10.753Z,8.30
2023-02-15T07:41:56.292Z,7.20
2023-02-15T07:44:48.975Z,9.80
2023-02-15T07:47:34.669Z,12.00
2023-02-15T07:50:20.765Z,11.60
2023-02-15T07:53:06.719Z,12.40
2023-02-15T07:55:53.544Z,13.00
2023-02-15T07:58:51.818Z,12.60
2023-02-15T08:01:39.888Z,14.10
2023-02-15T08:04:25.873Z,14.80
2023-02-15T08:07:11.754Z,15.30
2023-02-15T08:09:57.898Z,15.80
2023-02-15T08:12:48.124Z,16.50
2023-02-15T08:15:35.527Z,16.50
2023-02-15T08:18:22.235Z,16.80
2023-02-15T08:21:10.445Z,17.10
2023-02-15T08:23:56.978Z,17.40
2023-02-15T08:26:46.720Z,17.20
2023-02-15T08:29:33.708Z,17.40
2023-02-15T08:32:20.073Z,17.10
2023-02-15T08:35:09.317Z,18.10
2023-02-15T08:37:56.333Z,18.50
2023-02-15T08:40:46.275Z,15.90
2023-02-15T08:43:35.063Z,15.00
2023-02-15T08:46:28.126Z,15.80
2023-02-15T08:49:21.729Z,17.90
2023-02-15T08:52:08.269Z,19.00
2023-02-15T08:54:54.346Z,19.70
2023-02-15T08:57:45.904Z,19.30
2023-02-15T09:00:32.414Z,16.40
2023-02-15T09:03:18.661Z,15.50
2023-02-15T09:06:06.023Z,15.30
2023-02-15T09:08:53.031Z,16.60
2023-02-15T09:11:44.599Z,18.30
2023-02-15T09:14:30.931Z,19.70
2023-02-15T09:17:17.010Z,20.90
2023-02-15T09:20:03.346Z,21.20
2023-02-15T09:22:49.167Z,21.80
2023-02-15T09:25:36.009Z,22.30
2023-02-15T09:28:22.169Z,22.20
2023-02-15T09:31:09.403Z,21.70
2023-02-15T09:33:58.679Z,21.20
2023-02-15T09:36:45.423Z,21.00
2023-02-15T09:39:31.685Z,20.60
2023-02-15T09:42:26.270Z,21.00
2023-02-15T09:45:33.396Z,21.50
2023-02-15T09:48:40.069Z,22.40
2023-02-15T09:52:10.664Z,22.00
2023-02-15T09:55:02.266Z,22.40
2023-02-15T09:58:00.502Z,23.80
2023-02-15T10:00:53.034Z,25.20
2023-02-15T10:03:50.934Z,23.90
2023-02-15T10:07:17.417Z,23.50
2023-02-15T10:10:19.001Z,24.40
2023-02-15T10:13:22.394Z,23.70
2023-02-15T10:16:23.167Z,24.30
2023-02-15T10:19:32.277Z,24.20
2023-02-15T10:23:05.954Z,24.50
2023-02-15T10:26:12.515Z,24.70
2023-02-15T10:29:21.393Z,23.70
2023-02-15T10:32:30.386Z,22.00
2023-02-15T10:35:39.689Z,18.50
2023-02-15T10:38:25.652Z,16.70
2023-02-15T10:41:33.537Z,15.70
2023-02-15T10:44:28.292Z,15.30
2023-02-15T10:47:31.744Z,15.10
2023-02-15T10:50:50.593Z,14.70
2023-02-15T10:53:53.971Z,14.70
2023-02-15T10:57:06.121Z,14.70
2023-02-15T10:59:58.390Z,14.50
2023-02-15T11:02:59.950Z,14.40
2023-02-15T11:06:08.201Z,14.40
2023-02-15T11:09:01.051Z,14.00
2023-02-15T11:11:51.583Z,14.20
2023-02-15T11:15:07.026Z,14.40
2023-02-15T11:18:06.261Z,14.40
2023-02-15T11:21:04.156Z,14.40
2023-02-15T11:23:50.949Z,14.20
2023-02-15T11:26:44.855Z,14.10
2023-02-15T11:29:40.032Z,14.30
2023-02-15T11:32:31.859Z,14.40
2023-02-15T11:35:37.661Z,14.50
2023-02-15T11:38:27.372Z,14.60
2023-02-15T11:41:25.952Z,14.70
2023-02-15T11:44:20.715Z,14.60
2023-02-15T11:47:13.291Z,14.50
2023-02-15T11:50:02.840Z,14.50
2023-02-15T11:52:50.249Z,14.70
2023-02-15T11:55:36.911Z,14.90
2023-02-15T11:58:53.224Z,14.70
2023-02-15T12:01:46.959Z,14.90
2023-02-15T12:04:45.328Z,14.90
2023-02-15T12:07:51.100Z,15.00
2023-02-15T12:10:49.209Z,15.10
2023-02-15T12:13:35.249Z,15.30
2023-02-15T12:16:21.616Z,15.40
2023-02-15T12:19:37.685Z,15.50
2023-02-15T12:22:33.280Z,15.40
2023-02-15T12:25:41.484Z,15.40
2023-02-15T12:28:41.033Z,15.50
2023-02-15T12:31:33.591Z,15.40
2023-02-15T12:34:40.713Z,15.50
2023-02-15T12:37:37.037Z,15.60
2023-02-15T12:40:31.258Z,15.80
2023-02-15T12:43:36.639Z,15.90
2023-02-15T12:46:27.956Z,16.00
2023-02-15T12:49:20.839Z,16.10
2023-02-15T12:52:19.147Z,16.20
2023-02-15T12:55:20.214Z,16.00
2023-02-15T12:58:08.339Z,16.00
2023-02-15T13:01:23.119Z,16.80
2023-02-15T13:04:27.126Z,16.00
2023-02-15T13:07:14.794Z,16.00
2023-02-15T13:10:01.053Z,16.10
2023-02-15T13:12:48.692Z,16.00
2023-02-15T13:15:41.925Z,15.70
2023-02-15T13:18:31.473Z,15.90
2023-02-15T13:21:33.909Z,16.10
2023-02-15T13:24:33.897Z,16.00
2023-02-15T13:27:28.361Z,15.60
2023-02-15T13:30:28.390Z,15.80
2023-02-15T13:33:27.290Z,16.20
2023-02-15T13:36:34.006Z,16.20
2023-02-15T13:39:21.076Z,16.30
2023-02-15T13:42:25.137Z,16.30
2023-02-15T13:45:31.787Z,16.30
2023-02-15T13:48:45.002Z,16.30
2023-02-15T13:51:55.752Z,16.50
2023-02-15T13:54:50.262Z,16.40
2023-02-15T13:58:13.286Z,16.40
2023-02-15T14:01:10.005Z,16.30
2023-02-15T14:04:38.506Z,16.30
2023-02-15T14:07:28.148Z,16.50
2023-02-15T14:10:37.613Z,16.60
2023-02-15T14:13:38.478Z,16.30
2023-02-15T14:17:05.416Z,16.00
2023-02-15T14:20:12.526Z,16.30
2023-02-15T14:23:17.702Z,16.40
2023-02-15T14:26:39.362Z,16.00
2023-02-15T14:29:53.455Z,16.10
2023-02-15T14:32:51.777Z,15.70
2023-02-15T14:35:38.356Z,16.10
2023-02-15T14:38:42.154Z,16.20
2023-02-15T14:41:37.602Z,16.30
2023-02-15T14:44:46.856Z,16.30
2023-02-15T14:47:38.496Z,16.40
2023-02-15T14:50:38.584Z,16.30
2023-02-15T14:53:39.672Z,16.00
2023-02-15T14:56:27.580Z,16.20
2023-02-15T14:59:20.605Z,16.60
2023-02-15T15:02:09.756Z,16.50
2023-02-15T15:05:09.634Z,16.30
2023-02-15T15:07:59.342Z,16.20
2023-02-15T15:10:47.764Z,16.10
2023-02-15T15:13:33.550Z,16.10
2023-02-15T15:16:34.083Z,16.30
2023-02-15T15:19:52.045Z,16.30
2023-02-15T15:22:38.911Z,16.20
2023-02-15T15:25:48.010Z,16.20
2023-02-15T15:28:37.504Z,16.00
2023-02-15T15:31:45.411Z,16.00
2023-02-15T15:35:02.481Z,16.00
2023-02-15T15:38:12.980Z,16.10
2023-02-15T15:41:17.866Z,16.10
2023-02-15T15:44:27.786Z,16.10
2023-02-15T15:47:34.946Z,16.00
2023-02-15T15:50:21.772Z,16.00
2023-02-15T15:53:16.871Z,16.00
2023-02-15T15:56:08.854Z,16.00
2023-02-15T15:59:02.453Z,16.10
2023-02-15T16:01:49.412Z,16.20
2023-02-15T16:05:13.121Z,16.00
2023-02-15T16:07:59.059Z,15.90
2023-02-15T16:10:45.237Z,16.20
2023-02-15T16:13:30.973Z,16.00
2023-02-15T16:16:26.723Z,15.90
2023-02-15T16:19:21.236Z,15.90
2023-02-15T16:22:16.755Z,16.00
2023-02-15T16:25:26.715Z,15.70
2023-02-15T16:28:13.997Z,15.70
2023-02-15T16:31:14.656Z,15.60
2023-02-15T16:34:00.633Z,15.50
2023-02-15T16:36:46.540Z,15.30
2023-02-15T16:39:42.587Z,15.20
2023-02-15T16:42:28.944Z,15.20
2023-02-15T16:45:20.689Z,15.20
2023-02-15T16:48:18.642Z,15.00
2023-02-15T16:51:05.215Z,15.10
2023-02-15T16:53:53.348Z,15.10
2023-02-15T16:56:40.665Z,14.90
2023-02-15T16:59:29.512Z,14.70
2023-02-15T17:02:40.110Z,14.60
2023-02-15T17:05:32.389Z,14.50
2023-02-15T17:08:20.775Z,14.50
2023-02-15T17:11:19.653Z,14.40
2023-02-15T17:14:05.243Z,14.30
2023-02-15T17:17:00.363Z,14.20
2023-02-15T17:19:53.602Z,14.10
2023-02-15T17:22:41.294Z,14.20
2023-02-15T17:25:41.228Z,14.30
2023-02-15T17:28:30.370Z,14.20
2023-02-15T17:31:21.548Z,13.90
2023-02-15T17:34:27.469Z,13.80
2023-02-15T17:37:34.539Z,14.00
2023-02-15T17:40:33.672Z,14.20
2023-02-15T17:43:20.299Z,14.10
2023-02-15T17:46:06.783Z,14.00
2023-02-15T17:48:55.898Z,13.60
2023-02-15T17:51:42.186Z,14.00
2023-02-15T17:54:46.818Z,12.50
2023-02-15T17:57:34.180Z,13.70
2023-02-15T18:00:39.133Z,13.60
2023-02-15T18:03:49.040Z,13.80
2023-02-15T18:07:04.199Z,13.60
2023-02-15T18:10:08.449Z,13.10
2023-02-15T18:12:54.680Z,13.10
2023-02-15T18:15:40.786Z,13.10
2023-02-15T18:18:27.529Z,12.50
2023-02-15T18:21:15.436Z,12.70
2023-02-15T18:24:02.504Z,12.80
2023-02-15T18:26:49.156Z,12.40
2023-02-15T18:29:35.214Z,12.50
2023-02-15T18:32:33.158Z,12.10
2023-02-15T18:35:22.625Z,12.00
2023-02-15T18:38:13.624Z,12.20
2023-02-15T18:41:00.797Z,12.30
2023-02-15T18:43:51.509Z,12.20
2023-02-15T18:46:37.908Z,12.30
2023-02-15T18:49:24.282Z,12.10
2023-02-15T18:52:26.495Z,12.00
2023-02-15T18:55:20.724Z,11.90
2023-02-15T18:58:07.404Z,11.80
2023-02-15T19:00:54.910Z,11.60
2023-02-15T19:03:41.285Z,11.50
2023-02-15T19:06:29.669Z,11.60
2023-02-15T19:09:29.974Z,11.40
2023-02-15T19:12:44.224Z,11.40
2023-02-15T19:15:31.858Z,11.30
2023-02-15T19:18:19.404Z,11.30
2023-02-15T19:21:07.599Z,11.50
2023-02-15T19:24:08.465Z,13.40
2023-02-15T19:26:54.854Z,11.40
2023-02-15T19:29:41.261Z,11.40
2023-02-15T19:32:28.055Z,11.20
2023-02-15T19:35:23.041Z,11.00
2023-02-15T19:38:18.664Z,11.00
2023-02-15T19:41:09.808Z,11.10
2023-02-15T19:43:57.123Z,11.00
2023-02-15T19:46:43.099Z,10.90
2023-02-15T19:49:29.497Z,10.90
2023-02-15T19:52:24.327Z,10.90
2023-02-15T19:55:27.037Z,10.80
2023-02-15T19:58:19.080Z,10.60
2023-02-15T20:01:05.517Z,10.60
2023-02-15T20:03:53.341Z,10.50
2023-02-15T20:06:39.292Z,10.50
2023-02-15T20:09:28.817Z,10.40
2023-02-15T20:12:25.670Z,10.30
2023-02-15T20:15:29.448Z,10.30
2023-02-15T20:18:15.457Z,10.20
2023-02-15T20:21:03.080Z,10.10
2023-02-15T20:23:48.849Z,10.20
2023-02-15T20:26:34.941Z,10.10
2023-02-15T20:29:20.804Z,10.00
2023-02-15T20:32:09.397Z,9.90
2023-02-15T20:34:55.845Z,9.80
2023-02-15T20:37:41.764Z,9.80
2023-02-15T20:40:33.369Z,9.80
2023-02-15T20:43:19.050Z,9.70
2023-02-15T20:46:05.713Z,9.70
2023-02-15T20:48:52.972Z,9.80
2023-02-15T20:51:41.554Z,9.80
2023-02-15T20:54:33.361Z,9.90
2023-02-15T20:57:19.654Z,9.80
2023-02-15T21:00:07.196Z,9.80
2023-02-15T21:02:59.158Z,9.80
2023-02-15T21:05:49.839Z,9.70
2023-02-15T21:08:36.227Z,9.70
2023-02-15T21:11:23.234Z,9.60
2023-02-15T21:14:22.789Z,9.50
2023-02-15T21:17:15.754Z,9.50
2023-02-15T21:20:01.913Z,9.50
2023-02-15T21:22:49.066Z,9.30
2023-02-15T21:25:37.257Z,9.30
2023-02-15T21:28:26.100Z,9.30
2023-02-15T21:31:24.818Z,9.30
2023-02-15T21:34:10.955Z,9.30
2023-02-15T21:36:56.857Z,9.30
2023-02-15T21:39:42.591Z,9.20
2023-02-15T21:42:47.685Z,9.10
2023-02-15T21:45:52.274Z,9.10
2023-02-15T21:48:38.700Z,9.00
2023-02-15T21:51:43.593Z,9.00
2023-02-15T21:54:29.281Z,8.90
2023-02-15T21:57:16.911Z,8.90
2023-02-15T22:00:04.055Z,9.00
2023-02-15T22:02:58.677Z,9.00
2023-02-15T22:05:44.604Z,9.00
2023-02-15T22:08:30.924Z,9.00
2023-02-15T22:11:21.066Z,9.00
2023-02-15T22:14:06.867Z,9.10
2023-02-15T22:16:52.681Z,9.00
2023-02-15T22:19:38.739Z,8.90
2023-02-15T22:22:26.051Z,8.80
2023-02-15T22:25:15.179Z,8.80
2023-02-15T22:28:01.074Z,8.70
2023-02-15T22:30:47.235Z,8.80
2023-02-15T22:33:34.258Z,9.00
2023-02-15T22:36:26.138Z,8.90
2023-02-15T22:39:12.622Z,9.00
2023-02-15T22:41:58.496Z,8.90
2023-02-15T22:44:44.768Z,9.00
2023-02-15T22:47:32.253Z,8.90
2023-02-15T22:50:22.474Z,8.80
2023-02-15T22:53:10.246Z,8.80
2023-02-15T22:55:56.858Z,8.70
2023-02-15T22:58:44.215Z,8.70
2023-02-15T23:01:36.288Z,8.70
2023-02-15T23:04:24.649Z,8.70
2023-02-15T23:07:19.043Z,8.60
2023-02-15T23:10:05.914Z,8.50
2023-02-15T23:13:13.424Z,8.50
2023-02-15T23:16:02.284Z,8.60
2023-02-15T23:18:49.609Z,8.50
2023-02-15T23:21:36.153Z,8.40
2023-02-15T23:24:26.457Z,8.40
2023-02-15T23:27:37.666Z,8.20
2023-02-15T23:30:24.051Z,8.10
2023-02-15T23:33:12.233Z,8.30
2023-02-15T23:36:01.666Z,8.40
2023-02-15T23:38:47.339Z,8.50
2023-02-15T23:41:33.481Z,8.40
2023-02-15T23:44:19.758Z,8.20
2023-02-15T23:47:07.567Z,8.10
2023-02-15T23:49:53.789Z,8.20
2023-02-15T23:52:39.513Z,8.20
2023-02-15T23:55:38.502Z,8.20
2023-02-15T23:58:32.962Z,8.20
